createdAt,value
2023-05-12T00:00:12.071Z,97342.81
2023-05-12T00:07:21.806Z,97328.22
2023-05-12T00:10:55.920Z,97333.44
2023-05-12T00:18:03.997Z,97329.66
2023-05-12T00:21:35.777Z,97325.78
2023-05-12T00:25:18.069Z,97329.28
2023-05-12T00:38:53.688Z,97312.34
2023-05-12T00:41:48.714Z,97319.06
2023-05-12T00:52:35.210Z,97311.03
2023-05-12T00:55:37.184Z,97312.81
2023-05-12T00:58:40.223Z,97305.56
2023-05-12T01:01:48.689Z,97311.91
2023-05-12T01:04:48.050Z,97313.50
2023-05-12T01:15:14.002Z,97304.97
2023-05-12T01:18:35.441Z,97305.81
2023-05-12T01:21:58.482Z,97304.13
2023-05-12T01:29:07.398Z,97308.22
2023-05-12T01:36:14.762Z,97311.81
2023-05-12T01:46:52.564Z,97308.22
2023-05-12T01:50:16.178Z,97308.41
2023-05-12T01:53:45.605Z,97309.38
2023-05-12T01:57:28.097Z,97303.50
2023-05-12T02:01:07.745Z,97309.16
2023-05-12T02:04:52.106Z,97308.97
2023-05-12T02:12:22.113Z,97300.34
2023-05-12T02:31:12.585Z,97301.88
2023-05-12T02:34:57.933Z,97294.22
2023-05-12T02:38:39.487Z,97295.16
2023-05-12T02:49:40.945Z,97288.91
2023-05-12T02:59:37.335Z,97286.50
2023-05-12T03:07:34.061Z,97288.53
2023-05-12T03:11:33.374Z,97288.72
2023-05-12T03:15:11.187Z,97293.63
2023-05-12T03:22:14.484Z,97289.84
2023-05-12T03:25:44.784Z,97288.44
2023-05-12T03:29:16.306Z,97288.53
2023-05-12T03:32:41.279Z,97290.88
2023-05-12T03:36:38.178Z,97285.59
2023-05-12T03:47:00.024Z,97300.81
2023-05-12T03:50:33.164Z,97303.47
2023-05-12T03:54:00.017Z,97295.97
2023-05-12T03:57:58.726Z,97298.03
2023-05-12T04:01:43.897Z,97301.03
2023-05-12T04:05:14.321Z,97299.31
2023-05-12T04:08:50.222Z,97297.81
2023-05-12T04:30:53.267Z,97315.38
2023-05-12T04:33:22.996Z,97326.44
2023-05-12T04:35:51.171Z,97328.81
2023-05-12T04:38:19.268Z,97324.84
2023-05-12T04:40:47.809Z,97334.88
2023-05-12T04:45:47.230Z,97325.44
2023-05-12T04:48:17.083Z,97333.06
2023-05-12T04:50:45.329Z,97331.38
2023-05-12T04:53:13.578Z,97340.91
2023-05-12T04:55:42.854Z,97333.81
2023-05-12T04:58:11.245Z,97342.81
2023-05-12T05:00:39.531Z,97334.50
2023-05-12T05:03:08.172Z,97335.22
2023-05-12T05:05:37.810Z,97342.03
2023-05-12T05:08:06.341Z,97341.94
2023-05-12T05:10:35.752Z,97335.53
2023-05-12T05:13:04.387Z,97339.78
2023-05-12T05:15:32.564Z,97339.03
2023-05-12T05:18:01.866Z,97342.31
2023-05-12T05:20:32.863Z,97349.03
2023-05-12T05:23:02.771Z,97345.22
2023-05-12T05:25:30.948Z,97339.09
2023-05-12T05:27:59.178Z,97355.63
2023-05-12T05:30:27.543Z,97344.09
2023-05-12T05:32:55.752Z,97346.13
2023-05-12T05:35:23.928Z,97350.19
2023-05-12T05:37:54.652Z,97344.78
2023-05-12T05:40:25.111Z,97359.13
2023-05-12T05:42:53.476Z,97349.56
2023-05-12T05:45:22.422Z,97352.78
2023-05-12T05:47:53.413Z,97350.56
2023-05-12T05:50:22.726Z,97360.44
2023-05-12T05:52:51.029Z,97342.38
2023-05-12T05:55:19.564Z,97358.00
2023-05-12T05:57:49.600Z,97350.50
2023-05-12T06:00:18.205Z,97354.53
2023-05-12T06:02:49.871Z,97354.31
2023-05-12T06:05:21.097Z,97361.72
2023-05-12T06:07:49.871Z,97365.13
2023-05-12T06:10:18.162Z,97368.53
2023-05-12T06:12:46.423Z,97360.00
2023-05-12T06:15:15.957Z,97385.31
2023-05-12T06:17:44.151Z,97375.13
2023-05-12T06:20:13.542Z,97388.47
2023-05-12T06:22:42.402Z,97385.50
2023-05-12T06:25:11.708Z,97383.41
2023-05-12T06:27:39.831Z,97387.63
2023-05-12T06:30:09.699Z,97400.47
2023-05-12T06:32:39.366Z,97390.28
2023-05-12T06:35:08.218Z,97385.31
2023-05-12T06:37:36.401Z,97393.03
2023-05-12T06:40:05.032Z,97395.06
2023-05-12T06:42:33.445Z,97388.50
2023-05-12T06:45:08.782Z,97391.91
2023-05-12T06:47:38.398Z,97404.00
2023-05-12T06:50:08.519Z,97401.69
2023-05-12T06:52:37.613Z,97400.31
2023-05-12T06:55:07.101Z,97397.56
2023-05-12T06:57:35.363Z,97394.53
2023-05-12T07:00:03.824Z,97395.59
2023-05-12T07:02:32.200Z,97402.59
2023-05-12T07:05:02.002Z,97400.69
2023-05-12T07:07:30.150Z,97407.97
2023-05-12T07:09:58.424Z,97402.31
2023-05-12T07:12:26.748Z,97398.16
2023-05-12T07:14:54.923Z,97398.88
2023-05-12T07:17:23.061Z,97403.84
2023-05-12T07:19:51.813Z,97396.88
2023-05-12T07:22:21.507Z,97404.22
2023-05-12T07:24:49.609Z,97404.44
2023-05-12T07:27:17.806Z,97402.72
2023-05-12T07:29:46.054Z,97397.63
2023-05-12T07:32:14.182Z,97387.28
2023-05-12T07:34:42.503Z,97397.25
2023-05-12T07:37:10.675Z,97390.06
2023-05-12T07:39:40.494Z,97394.38
2023-05-12T07:42:09.132Z,97377.94
2023-05-12T07:44:37.305Z,97391.66
2023-05-12T07:47:08.708Z,97391.41
2023-05-12T07:49:36.932Z,97392.53
2023-05-12T07:52:05.577Z,97394.72
2023-05-12T07:54:33.781Z,97397.88
2023-05-12T07:57:03.336Z,97393.53
2023-05-12T07:59:31.492Z,97390.88
2023-05-12T08:01:59.731Z,97398.16
2023-05-12T08:04:27.958Z,97395.72
2023-05-12T08:06:56.201Z,97385.56
2023-05-12T08:09:24.339Z,97397.81
2023-05-12T08:11:52.531Z,97390.19
2023-05-12T08:14:23.034Z,97396.59
2023-05-12T08:16:51.299Z,97396.72
2023-05-12T08:19:19.566Z,97402.16
2023-05-12T08:21:47.935Z,97398.66
2023-05-12T08:24:16.077Z,97408.06
2023-05-12T08:26:44.292Z,97405.78
2023-05-12T08:29:12.507Z,97397.78
2023-05-12T08:31:42.329Z,97405.13
2023-05-12T08:34:11.229Z,97421.53
2023-05-12T08:36:40.002Z,97412.69
2023-05-12T08:39:10.107Z,97408.97
2023-05-12T08:41:44.945Z,97412.72
2023-05-12T08:44:13.507Z,97412.13
2023-05-12T08:46:43.730Z,97415.78
2023-05-12T08:49:15.835Z,97403.84
2023-05-12T08:51:54.438Z,97421.28
2023-05-12T08:54:27.631Z,97431.06
2023-05-12T08:59:27.808Z,97424.53
2023-05-12T09:01:59.803Z,97440.59
2023-05-12T09:04:28.476Z,97432.34
2023-05-12T09:06:58.317Z,97419.72
2023-05-12T09:09:28.818Z,97430.63
2023-05-12T09:11:58.751Z,97439.81
2023-05-12T09:14:27.571Z,97427.69
2023-05-12T09:17:02.326Z,97443.63
2023-05-12T09:19:31.517Z,97438.50
2023-05-12T09:22:00.386Z,97443.97
2023-05-12T09:24:38.712Z,97434.16
2023-05-12T09:27:07.922Z,97437.13
2023-05-12T09:29:45.180Z,97439.59
2023-05-12T09:32:32.030Z,97437.31
2023-05-12T09:35:04.619Z,97425.06
2023-05-12T09:37:33.469Z,97428.69
2023-05-12T09:40:02.060Z,97441.28
2023-05-12T09:42:32.139Z,97440.59
2023-05-12T09:45:01.308Z,97439.72
2023-05-12T09:47:36.321Z,97437.38
2023-05-12T09:50:05.011Z,97435.19
2023-05-12T09:52:38.824Z,97434.69
2023-05-12T09:55:09.873Z,97429.41
2023-05-12T09:57:41.787Z,97434.50
2023-05-12T10:00:24.937Z,97438.16
2023-05-12T10:03:05.707Z,97436.38
2023-05-12T10:05:35.370Z,97435.59
2023-05-12T10:08:07.210Z,97436.44
2023-05-12T10:10:35.927Z,97438.66
2023-05-12T10:13:04.813Z,97430.28
2023-05-12T10:15:35.081Z,97431.09
2023-05-12T10:18:05.230Z,97431.19
2023-05-12T10:20:34.424Z,97431.44
2023-05-12T10:23:03.311Z,97439.44
2023-05-12T10:25:32.744Z,97428.22
2023-05-12T10:28:04.283Z,97422.03
2023-05-12T10:30:32.849Z,97424.00
2023-05-12T10:33:02.003Z,97418.50
2023-05-12T10:35:35.830Z,97428.59
2023-05-12T10:38:07.593Z,97427.50
2023-05-12T10:40:36.071Z,97422.19
2023-05-12T10:43:04.992Z,97426.75
2023-05-12T10:45:37.428Z,97430.66
2023-05-12T10:48:08.393Z,97432.38
2023-05-12T10:50:38.366Z,97427.84
2023-05-12T10:53:07.557Z,97428.84
2023-05-12T10:55:45.597Z,97431.47
2023-05-12T10:58:14.933Z,97443.13
2023-05-12T11:00:51.961Z,97442.28
2023-05-12T11:03:27.582Z,97446.13
2023-05-12T11:06:03.435Z,97439.03
2023-05-12T11:08:36.003Z,97433.69
2023-05-12T11:11:04.499Z,97441.19
2023-05-12T11:13:32.946Z,97451.38
2023-05-12T11:16:01.248Z,97453.63
2023-05-12T11:18:29.665Z,97465.34
2023-05-12T11:20:58.166Z,97450.53
2023-05-12T11:23:29.190Z,97449.72
2023-05-12T11:25:57.776Z,97450.59
2023-05-12T11:28:25.992Z,97456.75
2023-05-12T11:30:55.526Z,97466.94
2023-05-12T11:33:24.448Z,97449.56
2023-05-12T11:35:52.833Z,97457.38
2023-05-12T11:38:24.470Z,97457.59
2023-05-12T11:40:54.694Z,97454.81
2023-05-12T11:43:23.555Z,97447.72
2023-05-12T11:45:51.899Z,97459.63
2023-05-12T11:48:21.699Z,97454.69
2023-05-12T11:50:51.931Z,97464.03
2023-05-12T11:53:20.592Z,97454.50
2023-05-12T11:55:50.486Z,97459.47
2023-05-12T11:58:26.040Z,97460.94
2023-05-12T12:00:54.873Z,97464.09
2023-05-12T12:03:23.176Z,97463.13
2023-05-12T12:06:02.420Z,97452.41
2023-05-12T12:08:30.620Z,97461.88
2023-05-12T12:10:59.300Z,97467.81
2023-05-12T12:13:30.246Z,97471.31
2023-05-12T12:15:58.474Z,97462.84
2023-05-12T12:18:27.176Z,97462.41
2023-05-12T12:20:55.411Z,97463.13
2023-05-12T12:23:23.653Z,97465.53
2023-05-12T12:25:52.036Z,97464.94
2023-05-12T12:28:20.601Z,97472.84
2023-05-12T12:30:50.173Z,97461.44
2023-05-12T12:33:20.564Z,97467.22
2023-05-12T12:35:49.076Z,97462.63
2023-05-12T12:38:17.355Z,97475.97
2023-05-12T12:40:45.856Z,97469.41
2023-05-12T12:43:14.094Z,97464.50
2023-05-12T12:45:42.310Z,97470.16
2023-05-12T12:48:12.032Z,97465.69
2023-05-12T12:50:40.486Z,97479.81
2023-05-12T12:53:09.840Z,97470.88
2023-05-12T12:55:38.452Z,97471.81
2023-05-12T12:58:06.923Z,97472.28
2023-05-12T13:00:35.366Z,97479.41
2023-05-12T13:03:03.629Z,97478.88
2023-05-12T13:05:33.315Z,97475.94
2023-05-12T13:08:01.911Z,97470.16
2023-05-12T13:10:30.511Z,97478.16
2023-05-12T13:12:58.667Z,97471.84
2023-05-12T13:15:26.894Z,97476.22
2023-05-12T13:17:55.225Z,97480.84
2023-05-12T13:20:23.563Z,97479.13
2023-05-12T13:22:53.290Z,97466.75
2023-05-12T13:25:21.927Z,97474.41
2023-05-12T13:27:50.485Z,97470.28
2023-05-12T13:30:18.870Z,97475.59
2023-05-12T13:32:50.901Z,97464.81
2023-05-12T13:35:19.761Z,97475.47
2023-05-12T13:37:48.387Z,97472.41
2023-05-12T13:40:18.122Z,97480.25
2023-05-12T13:42:46.631Z,97484.81
2023-05-12T13:45:16.334Z,97476.06
2023-05-12T13:47:45.602Z,97492.44
2023-05-12T13:50:13.883Z,97488.88
2023-05-12T13:52:42.530Z,97492.66
2023-05-12T13:55:16.426Z,97498.94
2023-05-12T13:57:50.457Z,97484.69
2023-05-12T14:00:19.541Z,97486.75
2023-05-12T14:02:48.064Z,97487.16
2023-05-12T14:05:16.830Z,97492.50
2023-05-12T14:07:45.126Z,97499.72
2023-05-12T14:10:13.451Z,97497.81
2023-05-12T14:12:42.755Z,97495.25
2023-05-12T14:15:26.528Z,97491.41
2023-05-12T14:18:01.015Z,97493.31
2023-05-12T14:20:29.353Z,97487.59
2023-05-12T14:22:57.769Z,97505.91
2023-05-12T14:25:26.110Z,97491.84
2023-05-12T14:27:54.281Z,97502.94
2023-05-12T14:30:24.500Z,97504.25
2023-05-12T14:32:53.510Z,97494.47
2023-05-12T14:35:22.519Z,97515.63
2023-05-12T14:37:51.177Z,97511.06
2023-05-12T14:40:19.430Z,97512.72
2023-05-12T14:42:48.059Z,97506.75
2023-05-12T14:45:16.610Z,97508.13
2023-05-12T14:47:46.353Z,97509.69
2023-05-12T14:50:15.179Z,97511.66
2023-05-12T14:52:43.364Z,97499.97
2023-05-12T14:55:13.701Z,97502.16
2023-05-12T14:57:42.803Z,97501.94
2023-05-12T15:00:13.021Z,97508.41
2023-05-12T15:02:42.766Z,97519.50
2023-05-12T15:05:14.616Z,97516.53
2023-05-12T15:07:43.029Z,97514.28
2023-05-12T15:10:12.214Z,97513.03
2023-05-12T15:12:40.458Z,97516.22
2023-05-12T15:15:11.785Z,97517.53
2023-05-12T15:17:40.241Z,97518.41
2023-05-12T15:20:09.977Z,97523.06
2023-05-12T15:22:40.284Z,97528.81
2023-05-12T15:25:09.893Z,97533.81
2023-05-12T15:27:38.307Z,97519.25
2023-05-12T15:30:08.147Z,97519.03
2023-05-12T15:32:36.505Z,97526.03
2023-05-12T15:35:05.147Z,97516.47
2023-05-12T15:37:33.418Z,97526.28
2023-05-12T15:40:03.692Z,97537.31
2023-05-12T15:42:33.196Z,97533.63
2023-05-12T15:45:01.871Z,97528.41
2023-05-12T15:47:30.335Z,97531.06
2023-05-12T15:49:58.625Z,97525.41
2023-05-12T15:52:28.088Z,97533.94
2023-05-12T15:54:56.417Z,97529.88
2023-05-12T15:57:26.553Z,97539.03
2023-05-12T15:59:59.835Z,97535.84
2023-05-12T16:02:28.283Z,97541.13
2023-05-12T16:04:56.526Z,97545.41
2023-05-12T16:07:29.481Z,97544.13
2023-05-12T16:09:58.125Z,97543.81
2023-05-12T16:12:27.791Z,97537.84
2023-05-12T16:14:56.131Z,97530.41
2023-05-12T16:17:24.439Z,97536.16
2023-05-12T16:19:53.676Z,97541.13
2023-05-12T16:22:22.004Z,97545.81
2023-05-12T16:24:50.327Z,97549.44
2023-05-12T16:27:18.640Z,97536.44
2023-05-12T16:29:49.690Z,97551.94
2023-05-12T16:32:18.298Z,97552.38
2023-05-12T16:34:46.770Z,97555.88
2023-05-12T16:37:15.025Z,97548.13
2023-05-12T16:39:43.264Z,97547.47
2023-05-12T16:42:11.881Z,97566.59
2023-05-12T16:44:40.220Z,97558.16
2023-05-12T16:47:10.012Z,97569.53
2023-05-12T16:49:38.312Z,97561.22
2023-05-12T16:52:07.246Z,97565.22
2023-05-12T16:54:35.498Z,97558.22
2023-05-12T16:57:03.750Z,97567.13
2023-05-12T16:59:32.639Z,97562.00
2023-05-12T17:02:02.184Z,97571.38
2023-05-12T17:04:31.842Z,97576.03
2023-05-12T17:07:00.029Z,97569.44
2023-05-12T17:09:28.359Z,97578.59
2023-05-12T17:11:56.681Z,97580.25
2023-05-12T17:14:24.839Z,97571.31
2023-05-12T17:16:53.198Z,97575.13
2023-05-12T17:19:22.276Z,97585.94
2023-05-12T17:21:52.154Z,97590.13
2023-05-12T17:24:20.420Z,97584.44
2023-05-12T17:26:48.764Z,97587.41
2023-05-12T17:29:17.124Z,97591.38
2023-05-12T17:31:45.386Z,97600.41
2023-05-12T17:34:13.805Z,97595.69
2023-05-12T17:36:43.589Z,97597.13
2023-05-12T17:39:15.982Z,97605.66
2023-05-12T17:41:44.484Z,97603.81
2023-05-12T17:44:12.936Z,97609.34
2023-05-12T17:46:41.101Z,97602.78
2023-05-12T17:49:09.514Z,97608.09
2023-05-12T17:51:37.729Z,97597.97
2023-05-12T17:54:06.285Z,97610.19
2023-05-12T17:56:35.908Z,97598.91
2023-05-12T17:59:04.198Z,97616.13
2023-05-12T18:01:32.577Z,97623.22
2023-05-12T18:04:00.824Z,97623.34
2023-05-12T18:06:29.148Z,97607.06
2023-05-12T18:08:57.828Z,97621.81
2023-05-12T18:11:26.082Z,97614.19
2023-05-12T18:13:56.244Z,97612.78
2023-05-12T18:16:28.904Z,97606.69
2023-05-12T18:18:58.644Z,97620.81
2023-05-12T18:21:26.916Z,97622.59
2023-05-12T18:23:55.477Z,97624.31
2023-05-12T18:26:23.749Z,97619.88
2023-05-12T18:28:51.959Z,97614.94
2023-05-12T18:31:21.558Z,97617.09
2023-05-12T18:33:50.919Z,97620.72
2023-05-12T18:36:19.229Z,97620.34
2023-05-12T18:38:47.549Z,97624.59
2023-05-12T18:41:16.116Z,97635.09
2023-05-12T18:43:44.927Z,97635.09
2023-05-12T18:46:13.750Z,97631.69
2023-05-12T18:48:43.463Z,97637.19
2023-05-12T18:51:12.464Z,97642.28
2023-05-12T18:53:40.927Z,97640.56
2023-05-12T18:56:09.198Z,97636.25
2023-05-12T18:58:38.881Z,97641.34
2023-05-12T19:01:07.310Z,97648.06
2023-05-12T19:03:35.558Z,97644.94
2023-05-12T19:06:05.372Z,97648.44
2023-05-12T19:08:33.630Z,97640.97
2023-05-12T19:11:01.871Z,97659.50
2023-05-12T19:13:30.499Z,97651.78
2023-05-12T19:15:58.948Z,97648.81
2023-05-12T19:18:27.538Z,97663.69
2023-05-12T19:20:55.981Z,97649.84
2023-05-12T19:23:25.684Z,97661.06
2023-05-12T19:25:53.934Z,97667.47
2023-05-12T19:28:22.520Z,97663.09
2023-05-12T19:30:51.114Z,97669.38
2023-05-12T19:33:19.661Z,97674.56
2023-05-12T19:35:47.958Z,97667.84
2023-05-12T19:38:16.428Z,97671.66
2023-05-12T19:40:46.053Z,97668.13
2023-05-12T19:43:14.426Z,97683.56
2023-05-12T19:45:42.604Z,97687.25
2023-05-12T19:48:11.257Z,97676.00
2023-05-12T19:50:39.794Z,97691.31
2023-05-12T19:53:08.139Z,97666.34
2023-05-12T19:55:36.690Z,97687.06
2023-05-12T19:58:06.247Z,97694.91
2023-05-12T20:00:36.442Z,97679.59
2023-05-12T20:03:06.866Z,97679.66
2023-05-12T20:05:37.795Z,97693.41
2023-05-12T20:08:06.834Z,97676.66
2023-05-12T20:10:34.983Z,97682.59
2023-05-12T20:13:04.570Z,97694.16
2023-05-12T20:15:35.277Z,97701.81
2023-05-12T20:18:03.758Z,97689.59
2023-05-12T20:20:31.936Z,97677.41
2023-05-12T20:23:00.400Z,97696.81
2023-05-12T20:25:31.587Z,97687.81
2023-05-12T20:28:00.260Z,97684.50
2023-05-12T20:30:28.466Z,97675.03
2023-05-12T20:32:58.680Z,97693.19
2023-05-12T20:35:27.081Z,97690.81
2023-05-12T20:37:55.513Z,97680.22
2023-05-12T20:40:24.277Z,97683.44
2023-05-12T20:42:52.501Z,97682.13
2023-05-12T20:45:21.400Z,97697.66
2023-05-12T20:47:50.753Z,97695.84
2023-05-12T20:50:21.054Z,97702.13
2023-05-12T20:52:50.286Z,97703.63
2023-05-12T20:55:18.794Z,97692.16
2023-05-12T20:57:47.367Z,97695.97
2023-05-12T21:00:16.444Z,97695.09
2023-05-12T21:02:45.323Z,97695.28
2023-05-12T21:05:13.715Z,97690.19
2023-05-12T21:07:43.268Z,97690.81
2023-05-12T21:10:11.989Z,97690.19
2023-05-12T21:12:40.142Z,97698.50
2023-05-12T21:15:11.136Z,97684.50
2023-05-12T21:17:40.203Z,97700.56
2023-05-12T21:20:10.474Z,97697.34
2023-05-12T21:22:40.772Z,97695.34
2023-05-12T21:25:11.552Z,97699.91
2023-05-12T21:27:41.545Z,97692.06
2023-05-12T21:30:11.017Z,97697.53
2023-05-12T21:32:39.873Z,97688.84
2023-05-12T21:35:09.303Z,97698.38
2023-05-12T21:37:37.456Z,97702.66
2023-05-12T21:40:06.496Z,97701.97
2023-05-12T21:42:36.089Z,97689.66
2023-05-12T21:45:04.528Z,97698.47
2023-05-12T21:47:32.699Z,97692.50
2023-05-12T21:50:00.953Z,97696.97
2023-05-12T21:52:29.359Z,97691.81
2023-05-12T21:54:57.480Z,97704.34
2023-05-12T21:57:25.720Z,97698.28
2023-05-12T21:59:56.325Z,97694.69
2023-05-12T22:02:24.840Z,97706.78
2023-05-12T22:04:53.521Z,97699.78
2023-05-12T22:07:21.781Z,97710.50
2023-05-12T22:09:49.999Z,97710.38
2023-05-12T22:12:18.732Z,97719.28
2023-05-12T22:14:46.872Z,97700.16
2023-05-12T22:17:16.494Z,97712.44
2023-05-12T22:19:44.638Z,97701.84
2023-05-12T22:22:12.906Z,97701.78
2023-05-12T22:24:41.122Z,97693.59
2023-05-12T22:27:09.690Z,97703.94
2023-05-12T22:29:37.866Z,97700.50
2023-05-12T22:32:06.416Z,97701.38
2023-05-12T22:34:36.119Z,97695.06
2023-05-12T22:37:04.334Z,97704.88
2023-05-12T22:39:32.646Z,97710.66
2023-05-12T22:42:00.865Z,97700.50
2023-05-12T22:44:29.084Z,97707.31
2023-05-12T22:46:57.289Z,97693.34
2023-05-12T22:49:25.559Z,97701.84
2023-05-12T22:51:55.452Z,97705.84
2023-05-12T22:54:23.630Z,97706.97
2023-05-12T22:56:51.918Z,97698.72
2023-05-12T22:59:20.316Z,97695.78
2023-05-12T23:01:48.549Z,97695.69
2023-05-12T23:04:16.781Z,97696.56
2023-05-12T23:06:45.053Z,97702.22
2023-05-12T23:09:14.991Z,97702.13
2023-05-12T23:11:43.160Z,97688.78
2023-05-12T23:14:11.647Z,97707.72
2023-05-12T23:16:39.941Z,97701.84
2023-05-12T23:19:08.374Z,97694.06
2023-05-12T23:21:36.686Z,97701.19
2023-05-12T23:24:05.300Z,97690.59
2023-05-12T23:26:35.067Z,97699.22
2023-05-12T23:29:04.195Z,97682.75
2023-05-12T23:31:32.399Z,97685.09
2023-05-12T23:34:00.998Z,97691.09
2023-05-12T23:36:29.162Z,97693.75
2023-05-12T23:38:57.418Z,97683.47
2023-05-12T23:41:26.127Z,97694.69
2023-05-12T23:43:55.696Z,97684.25
2023-05-12T23:46:24.007Z,97683.03
2023-05-12T23:48:52.800Z,97690.25
2023-05-12T23:51:21.220Z,97672.16
2023-05-12T23:53:49.352Z,97663.44
2023-05-12T23:56:17.448Z,97674.34
2023-05-12T23:58:47.060Z,97669.13
